sensor_id;sensor_type;location;lat;lon;timestamp;P1;durP1;ratioP1;P2;durP2;ratioP2
70920;SDS011;58572;48.110;19.838;2022-09-29T00:00:59;4.22;;;1.85;;
70920;SDS011;58572;48.110;19.838;2022-09-29T00:03:27;4.72;;;1.98;;
70920;SDS011;58572;48.110;19.838;2022-09-29T00:05:54;4.70;;;2.15;;
70920;SDS011;58572;48.110;19.838;2022-09-29T00:08:23;3.83;;;1.75;;
70920;SDS011;58572;48.110;19.838;2022-09-29T00:10:52;4.63;;;1.85;;
70920;SDS011;58572;48.110;19.838;2022-09-29T00:13:19;4.68;;;1.75;;
70920;SDS011;58572;48.110;19.838;2022-09-29T00:15:53;3.97;;;2.28;;
70920;SDS011;58572;48.110;19.838;2022-09-29T00:18:23;3.63;;;1.70;;
70920;SDS011;58572;48.110;19.838;2022-09-29T00:20:57;3.55;;;1.90;;
70920;SDS011;58572;48.110;19.838;2022-09-29T00:23:25;3.38;;;1.73;;
70920;SDS011;58572;48.110;19.838;2022-09-29T00:26:00;3.42;;;1.70;;
70920;SDS011;58572;48.110;19.838;2022-09-29T00:28:29;4.20;;;1.88;;
70920;SDS011;58572;48.110;19.838;2022-09-29T00:30:57;3.65;;;1.45;;
70920;SDS011;58572;48.110;19.838;2022-09-29T00:33:27;3.95;;;1.88;;
70920;SDS011;58572;48.110;19.838;2022-09-29T00:35:56;2.95;;;1.52;;
70920;SDS011;58572;48.110;19.838;2022-09-29T00:38:25;2.75;;;1.52;;
70920;SDS011;58572;48.110;19.838;2022-09-29T00:43:21;4.85;;;1.48;;
70920;SDS011;58572;48.110;19.838;2022-09-29T00:45:49;3.67;;;1.92;;
70920;SDS011;58572;48.110;19.838;2022-09-29T00:48:21;3.30;;;1.52;;
70920;SDS011;58572;48.110;19.838;2022-09-29T00:50:57;4.72;;;1.75;;
70920;SDS011;58572;48.110;19.838;2022-09-29T00:53:25;2.63;;;1.40;;
70920;SDS011;58572;48.110;19.838;2022-09-29T00:55:54;3.28;;;1.75;;
70920;SDS011;58572;48.110;19.838;2022-09-29T00:58:27;5.28;;;1.73;;
70920;SDS011;58572;48.110;19.838;2022-09-29T01:00:58;5.18;;;1.80;;
70920;SDS011;58572;48.110;19.838;2022-09-29T01:03:26;4.65;;;1.60;;
70920;SDS011;58572;48.110;19.838;2022-09-29T01:05:59;4.57;;;1.70;;
70920;SDS011;58572;48.110;19.838;2022-09-29T01:08:35;4.47;;;1.63;;
70920;SDS011;58572;48.110;19.838;2022-09-29T01:11:06;3.53;;;1.65;;
70920;SDS011;58572;48.110;19.838;2022-09-29T01:13:35;2.85;;;1.65;;
70920;SDS011;58572;48.110;19.838;2022-09-29T01:16:03;3.50;;;1.67;;
70920;SDS011;58572;48.110;19.838;2022-09-29T01:18:30;3.95;;;1.75;;
70920;SDS011;58572;48.110;19.838;2022-09-29T01:29:49;3.90;;;1.75;;
70920;SDS011;58572;48.110;19.838;2022-09-29T01:32:27;4.10;;;1.70;;
70920;SDS011;58572;48.110;19.838;2022-09-29T01:35:05;4.15;;;1.75;;
70920;SDS011;58572;48.110;19.838;2022-09-29T01:37:41;4.18;;;2.15;;
70920;SDS011;58572;48.110;19.838;2022-09-29T01:40:17;4.93;;;2.30;;
70920;SDS011;58572;48.110;19.838;2022-09-29T01:42:53;5.00;;;2.60;;
70920;SDS011;58572;48.110;19.838;2022-09-29T01:45:28;6.45;;;2.67;;
70920;SDS011;58572;48.110;19.838;2022-09-29T01:48:00;6.85;;;2.95;;
70920;SDS011;58572;48.110;19.838;2022-09-29T01:50:31;5.18;;;2.70;;
70920;SDS011;58572;48.110;19.838;2022-09-29T01:53:02;4.43;;;2.67;;
70920;SDS011;58572;48.110;19.838;2022-09-29T01:55:34;5.22;;;2.95;;
70920;SDS011;58572;48.110;19.838;2022-09-29T01:58:09;6.47;;;3.35;;
70920;SDS011;58572;48.110;19.838;2022-09-29T02:00:46;7.30;;;2.85;;
70920;SDS011;58572;48.110;19.838;2022-09-29T02:03:17;7.07;;;2.90;;
70920;SDS011;58572;48.110;19.838;2022-09-29T02:05:49;5.68;;;3.58;;
70920;SDS011;58572;48.110;19.838;2022-09-29T02:08:20;5.90;;;3.58;;
70920;SDS011;58572;48.110;19.838;2022-09-29T02:10:57;8.65;;;3.70;;
70920;SDS011;58572;48.110;19.838;2022-09-29T02:13:28;7.22;;;3.83;;
70920;SDS011;58572;48.110;19.838;2022-09-29T02:16:00;8.30;;;3.72;;
70920;SDS011;58572;48.110;19.838;2022-09-29T02:18:31;7.03;;;3.75;;
70920;SDS011;58572;48.110;19.838;2022-09-29T02:21:02;8.05;;;3.97;;
70920;SDS011;58572;48.110;19.838;2022-09-29T02:23:30;6.85;;;3.75;;
70920;SDS011;58572;48.110;19.838;2022-09-29T02:25:57;7.63;;;3.95;;
70920;SDS011;58572;48.110;19.838;2022-09-29T02:28:26;6.03;;;3.88;;
70920;SDS011;58572;48.110;19.838;2022-09-29T02:30:53;6.13;;;2.97;;
70920;SDS011;58572;48.110;19.838;2022-09-29T02:33:21;6.97;;;3.72;;
70920;SDS011;58572;48.110;19.838;2022-09-29T02:35:53;7.38;;;3.78;;
70920;SDS011;58572;48.110;19.838;2022-09-29T02:38:30;7.50;;;3.22;;
70920;SDS011;58572;48.110;19.838;2022-09-29T02:41:10;7.07;;;3.42;;
70920;SDS011;58572;48.110;19.838;2022-09-29T02:47:05;5.13;;;2.55;;
70920;SDS011;58572;48.110;19.838;2022-09-29T02:50:03;4.70;;;2.67;;
70920;SDS011;58572;48.110;19.838;2022-09-29T02:52:48;6.38;;;2.63;;
70920;SDS011;58572;48.110;19.838;2022-09-29T02:55:24;7.25;;;2.50;;
70920;SDS011;58572;48.110;19.838;2022-09-29T02:58:00;7.20;;;3.80;;
70920;SDS011;58572;48.110;19.838;2022-09-29T03:00:32;6.18;;;3.30;;
70920;SDS011;58572;48.110;19.838;2022-09-29T03:03:00;7.13;;;3.60;;
70920;SDS011;58572;48.110;19.838;2022-09-29T03:05:27;7.05;;;3.75;;
70920;SDS011;58572;48.110;19.838;2022-09-29T03:07:56;7.85;;;4.53;;
70920;SDS011;58572;48.110;19.838;2022-09-29T03:10:24;8.20;;;4.45;;
70920;SDS011;58572;48.110;19.838;2022-09-29T03:12:51;8.15;;;4.40;;
70920;SDS011;58572;48.110;19.838;2022-09-29T03:15:20;7.88;;;4.70;;
70920;SDS011;58572;48.110;19.838;2022-09-29T03:17:47;7.25;;;3.75;;
70920;SDS011;58572;48.110;19.838;2022-09-29T03:20:14;8.82;;;4.38;;
70920;SDS011;58572;48.110;19.838;2022-09-29T03:22:41;6.60;;;3.88;;
70920;SDS011;58572;48.110;19.838;2022-09-29T03:25:10;8.68;;;4.05;;
70920;SDS011;58572;48.110;19.838;2022-09-29T03:27:38;7.80;;;4.35;;
70920;SDS011;58572;48.110;19.838;2022-09-29T03:30:06;8.57;;;4.47;;
70920;SDS011;58572;48.110;19.838;2022-09-29T03:32:34;8.25;;;4.68;;
70920;SDS011;58572;48.110;19.838;2022-09-29T03:35:02;8.70;;;4.70;;
70920;SDS011;58572;48.110;19.838;2022-09-29T03:39:56;9.32;;;4.38;;
70920;SDS011;58572;48.110;19.838;2022-09-29T03:42:24;7.28;;;4.13;;
70920;SDS011;58572;48.110;19.838;2022-09-29T03:44:52;8.77;;;4.13;;
70920;SDS011;58572;48.110;19.838;2022-09-29T03:47:19;6.88;;;3.95;;
70920;SDS011;58572;48.110;19.838;2022-09-29T03:49:46;6.50;;;3.83;;
70920;SDS011;58572;48.110;19.838;2022-09-29T03:52:13;6.75;;;4.25;;
70920;SDS011;58572;48.110;19.838;2022-09-29T03:54:40;5.68;;;3.13;;
70920;SDS011;58572;48.110;19.838;2022-09-29T03:57:07;7.10;;;3.60;;
70920;SDS011;58572;48.110;19.838;2022-09-29T03:59:36;5.15;;;3.17;;
70920;SDS011;58572;48.110;19.838;2022-09-29T04:02:03;6.00;;;3.75;;
70920;SDS011;58572;48.110;19.838;2022-09-29T04:04:30;7.40;;;4.13;;
70920;SDS011;58572;48.110;19.838;2022-09-29T04:06:57;8.20;;;4.10;;
70920;SDS011;58572;48.110;19.838;2022-09-29T04:09:24;7.57;;;3.80;;
70920;SDS011;58572;48.110;19.838;2022-09-29T04:11:51;7.90;;;4.47;;
70920;SDS011;58572;48.110;19.838;2022-09-29T04:14:18;7.18;;;4.25;;
70920;SDS011;58572;48.110;19.838;2022-09-29T04:16:47;8.25;;;4.85;;
70920;SDS011;58572;48.110;19.838;2022-09-29T04:19:14;9.10;;;4.88;;
70920;SDS011;58572;48.110;19.838;2022-09-29T04:21:41;9.43;;;4.90;;
70920;SDS011;58572;48.110;19.838;2022-09-29T04:24:08;11.55;;;4.63;;
70920;SDS011;58572;48.110;19.838;2022-09-29T04:26:35;8.30;;;4.85;;
70920;SDS011;58572;48.110;19.838;2022-09-29T04:29:02;9.93;;;4.55;;
70920;SDS011;58572;48.110;19.838;2022-09-29T04:31:29;8.32;;;4.47;;
70920;SDS011;58572;48.110;19.838;2022-09-29T04:33:57;11.35;;;5.07;;
70920;SDS011;58572;48.110;19.838;2022-09-29T04:36:25;9.70;;;5.35;;
70920;SDS011;58572;48.110;19.838;2022-09-29T04:38:52;10.40;;;5.68;;
70920;SDS011;58572;48.110;19.838;2022-09-29T04:41:19;9.68;;;5.07;;
70920;SDS011;58572;48.110;19.838;2022-09-29T04:43:46;9.77;;;5.53;;
70920;SDS011;58572;48.110;19.838;2022-09-29T04:46:13;15.05;;;6.22;;
70920;SDS011;58572;48.110;19.838;2022-09-29T04:48:40;9.15;;;5.05;;
70920;SDS011;58572;48.110;19.838;2022-09-29T04:51:09;8.60;;;5.07;;
70920;SDS011;58572;48.110;19.838;2022-09-29T04:53:36;9.20;;;5.20;;
70920;SDS011;58572;48.110;19.838;2022-09-29T04:56:04;10.98;;;5.70;;
70920;SDS011;58572;48.110;19.838;2022-09-29T04:58:31;13.85;;;5.25;;
70920;SDS011;58572;48.110;19.838;2022-09-29T05:01:03;9.85;;;5.63;;
70920;SDS011;58572;48.110;19.838;2022-09-29T05:03:31;7.95;;;4.55;;
70920;SDS011;58572;48.110;19.838;2022-09-29T05:05:58;8.52;;;4.78;;
70920;SDS011;58572;48.110;19.838;2022-09-29T05:08:26;8.85;;;4.68;;
70920;SDS011;58572;48.110;19.838;2022-09-29T05:10:53;8.25;;;4.75;;
70920;SDS011;58572;48.110;19.838;2022-09-29T05:13:20;8.77;;;4.22;;
70920;SDS011;58572;48.110;19.838;2022-09-29T05:15:48;9.02;;;5.13;;
70920;SDS011;58572;48.110;19.838;2022-09-29T05:18:20;7.97;;;4.07;;
70920;SDS011;58572;48.110;19.838;2022-09-29T05:20:47;9.13;;;4.47;;
70920;SDS011;58572;48.110;19.838;2022-09-29T05:23:14;8.05;;;4.32;;
70920;SDS011;58572;48.110;19.838;2022-09-29T05:25:42;6.50;;;4.40;;
70920;SDS011;58572;48.110;19.838;2022-09-29T05:28:09;9.38;;;4.95;;
70920;SDS011;58572;48.110;19.838;2022-09-29T05:30:36;10.25;;;4.35;;
70920;SDS011;58572;48.110;19.838;2022-09-29T05:33:04;8.27;;;4.72;;
70920;SDS011;58572;48.110;19.838;2022-09-29T05:35:31;7.97;;;4.07;;
70920;SDS011;58572;48.110;19.838;2022-09-29T05:37:58;7.75;;;4.05;;
70920;SDS011;58572;48.110;19.838;2022-09-29T05:40:25;7.80;;;4.45;;
70920;SDS011;58572;48.110;19.838;2022-09-29T05:42:54;9.18;;;3.95;;
70920;SDS011;58572;48.110;19.838;2022-09-29T05:45:21;9.40;;;4.28;;
70920;SDS011;58572;48.110;19.838;2022-09-29T05:47:48;6.35;;;3.85;;
70920;SDS011;58572;48.110;19.838;2022-09-29T05:50:15;7.07;;;3.85;;
70920;SDS011;58572;48.110;19.838;2022-09-29T05:52:42;7.97;;;5.40;;
70920;SDS011;58572;48.110;19.838;2022-09-29T05:55:13;7.18;;;3.72;;
70920;SDS011;58572;48.110;19.838;2022-09-29T06:00:09;7.45;;;4.45;;
70920;SDS011;58572;48.110;19.838;2022-09-29T06:02:37;7.90;;;4.05;;
70920;SDS011;58572;48.110;19.838;2022-09-29T06:05:04;7.88;;;4.63;;
70920;SDS011;58572;48.110;19.838;2022-09-29T06:07:31;8.13;;;4.45;;
70920;SDS011;58572;48.110;19.838;2022-09-29T06:09:58;10.38;;;4.90;;
70920;SDS011;58572;48.110;19.838;2022-09-29T06:12:25;7.32;;;4.32;;
70920;SDS011;58572;48.110;19.838;2022-09-29T06:14:53;9.05;;;5.40;;
70920;SDS011;58572;48.110;19.838;2022-09-29T06:17:22;9.00;;;4.95;;
70920;SDS011;58572;48.110;19.838;2022-09-29T06:19:49;9.65;;;4.97;;
70920;SDS011;58572;48.110;19.838;2022-09-29T06:22:18;8.68;;;4.82;;
70920;SDS011;58572;48.110;19.838;2022-09-29T06:27:12;10.40;;;4.97;;
70920;SDS011;58572;48.110;19.838;2022-09-29T06:29:39;8.30;;;4.95;;
70920;SDS011;58572;48.110;19.838;2022-09-29T06:32:06;7.78;;;5.15;;
70920;SDS011;58572;48.110;19.838;2022-09-29T06:34:35;10.02;;;6.10;;
70920;SDS011;58572;48.110;19.838;2022-09-29T06:37:22;10.07;;;6.75;;
70920;SDS011;58572;48.110;19.838;2022-09-29T06:40:00;6.90;;;4.18;;
70920;SDS011;58572;48.110;19.838;2022-09-29T06:42:27;8.00;;;5.07;;
70920;SDS011;58572;48.110;19.838;2022-09-29T06:44:54;5.38;;;3.30;;
70920;SDS011;58572;48.110;19.838;2022-09-29T06:47:21;6.85;;;4.13;;
70920;SDS011;58572;48.110;19.838;2022-09-29T06:49:50;5.57;;;2.88;;
70920;SDS011;58572;48.110;19.838;2022-09-29T06:52:17;5.05;;;2.75;;
70920;SDS011;58572;48.110;19.838;2022-09-29T06:54:44;4.63;;;2.83;;
70920;SDS011;58572;48.110;19.838;2022-09-29T06:57:11;4.50;;;2.70;;
70920;SDS011;58572;48.110;19.838;2022-09-29T06:59:39;4.30;;;1.92;;
70920;SDS011;58572;48.110;19.838;2022-09-29T07:02:07;3.55;;;2.10;;
70920;SDS011;58572;48.110;19.838;2022-09-29T07:04:35;4.45;;;2.20;;
70920;SDS011;58572;48.110;19.838;2022-09-29T07:07:04;6.03;;;2.13;;
70920;SDS011;58572;48.110;19.838;2022-09-29T07:09:31;5.22;;;1.98;;
70920;SDS011;58572;48.110;19.838;2022-09-29T07:11:58;3.50;;;1.77;;
70920;SDS011;58572;48.110;19.838;2022-09-29T07:14:25;4.05;;;2.00;;
70920;SDS011;58572;48.110;19.838;2022-09-29T07:16:52;4.80;;;1.63;;
70920;SDS011;58572;48.110;19.838;2022-09-29T07:19:19;4.25;;;2.35;;
70920;SDS011;58572;48.110;19.838;2022-09-29T07:21:46;4.38;;;2.30;;
70920;SDS011;58572;48.110;19.838;2022-09-29T07:24:15;4.28;;;2.53;;
70920;SDS011;58572;48.110;19.838;2022-09-29T07:26:42;3.22;;;2.10;;
70920;SDS011;58572;48.110;19.838;2022-09-29T07:29:10;7.22;;;3.50;;
70920;SDS011;58572;48.110;19.838;2022-09-29T07:31:37;9.52;;;4.35;;
70920;SDS011;58572;48.110;19.838;2022-09-29T07:34:05;10.07;;;5.18;;
70920;SDS011;58572;48.110;19.838;2022-09-29T07:36:32;7.78;;;4.50;;
70920;SDS011;58572;48.110;19.838;2022-09-29T07:39:03;6.15;;;3.55;;
70920;SDS011;58572;48.110;19.838;2022-09-29T07:41:31;7.35;;;3.83;;
70920;SDS011;58572;48.110;19.838;2022-09-29T07:43:58;6.03;;;3.22;;
70920;SDS011;58572;48.110;19.838;2022-09-29T07:46:25;8.45;;;3.88;;
70920;SDS011;58572;48.110;19.838;2022-09-29T07:48:52;6.18;;;3.40;;
70920;SDS011;58572;48.110;19.838;2022-09-29T07:51:19;6.70;;;3.72;;
70920;SDS011;58572;48.110;19.838;2022-09-29T07:53:47;5.35;;;2.30;;
70920;SDS011;58572;48.110;19.838;2022-09-29T07:56:15;4.25;;;2.63;;
70920;SDS011;58572;48.110;19.838;2022-09-29T07:58:46;5.38;;;2.60;;
70920;SDS011;58572;48.110;19.838;2022-09-29T08:01:15;5.45;;;2.55;;
70920;SDS011;58572;48.110;19.838;2022-09-29T08:03:43;10.65;;;3.67;;
70920;SDS011;58572;48.110;19.838;2022-09-29T08:06:15;6.22;;;3.22;;
70920;SDS011;58572;48.110;19.838;2022-09-29T08:08:42;5.57;;;2.92;;
70920;SDS011;58572;48.110;19.838;2022-09-29T08:11:09;3.78;;;2.08;;
70920;SDS011;58572;48.110;19.838;2022-09-29T08:13:38;4.32;;;2.50;;
70920;SDS011;58572;48.110;19.838;2022-09-29T08:18:36;4.03;;;2.40;;
70920;SDS011;58572;48.110;19.838;2022-09-29T08:21:03;3.97;;;2.38;;
70920;SDS011;58572;48.110;19.838;2022-09-29T08:23:33;4.03;;;2.40;;
70920;SDS011;58572;48.110;19.838;2022-09-29T08:26:01;3.38;;;1.73;;
70920;SDS011;58572;48.110;19.838;2022-09-29T08:28:29;3.10;;;1.80;;
70920;SDS011;58572;48.110;19.838;2022-09-29T08:31:00;3.65;;;1.60;;
70920;SDS011;58572;48.110;19.838;2022-09-29T08:33:29;3.40;;;1.40;;
70920;SDS011;58572;48.110;19.838;2022-09-29T08:35:56;2.72;;;1.30;;
70920;SDS011;58572;48.110;19.838;2022-09-29T08:38:24;3.15;;;1.55;;
70920;SDS011;58572;48.110;19.838;2022-09-29T08:40:53;5.68;;;2.00;;
70920;SDS011;58572;48.110;19.838;2022-09-29T08:43:23;3.63;;;1.88;;
70920;SDS011;58572;48.110;19.838;2022-09-29T08:45:55;2.78;;;1.50;;
70920;SDS011;58572;48.110;19.838;2022-09-29T08:48:27;3.28;;;1.17;;
70920;SDS011;58572;48.110;19.838;2022-09-29T08:50:58;2.58;;;1.50;;
70920;SDS011;58572;48.110;19.838;2022-09-29T08:53:30;4.80;;;1.55;;
70920;SDS011;58572;48.110;19.838;2022-09-29T08:56:01;2.67;;;1.58;;
70920;SDS011;58572;48.110;19.838;2022-09-29T08:58:30;4.15;;;1.55;;
70920;SDS011;58572;48.110;19.838;2022-09-29T09:01:02;4.70;;;2.50;;
70920;SDS011;58572;48.110;19.838;2022-09-29T09:06:49;3.42;;;2.30;;
70920;SDS011;58572;48.110;19.838;2022-09-29T09:09:32;3.08;;;2.05;;
70920;SDS011;58572;48.110;19.838;2022-09-29T09:12:23;4.22;;;2.85;;
70920;SDS011;58572;48.110;19.838;2022-09-29T09:15:05;4.38;;;2.53;;
70920;SDS011;58572;48.110;19.838;2022-09-29T09:17:52;4.55;;;2.60;;
70920;SDS011;58572;48.110;19.838;2022-09-29T09:20:31;4.80;;;3.28;;
70920;SDS011;58572;48.110;19.838;2022-09-29T09:23:03;4.57;;;3.28;;
70920;SDS011;58572;48.110;19.838;2022-09-29T09:25:41;6.93;;;3.58;;
70920;SDS011;58572;48.110;19.838;2022-09-29T09:28:15;5.10;;;2.90;;
70920;SDS011;58572;48.110;19.838;2022-09-29T09:30:45;5.53;;;3.13;;
70920;SDS011;58572;48.110;19.838;2022-09-29T09:33:22;5.30;;;3.47;;
70920;SDS011;58572;48.110;19.838;2022-09-29T09:35:56;5.85;;;2.75;;
70920;SDS011;58572;48.110;19.838;2022-09-29T09:38:33;7.15;;;3.42;;
70920;SDS011;58572;48.110;19.838;2022-09-29T09:43:36;6.53;;;2.90;;
70920;SDS011;58572;48.110;19.838;2022-09-29T09:46:09;2.42;;;1.35;;
70920;SDS011;58572;48.110;19.838;2022-09-29T09:48:42;3.42;;;2.03;;
70920;SDS011;58572;48.110;19.838;2022-09-29T09:51:23;2.65;;;1.45;;
70920;SDS011;58572;48.110;19.838;2022-09-29T09:53:59;2.65;;;1.00;;
70920;SDS011;58572;48.110;19.838;2022-09-29T09:56:36;3.00;;;1.20;;
70920;SDS011;58572;48.110;19.838;2022-09-29T09:59:17;2.47;;;0.90;;
70920;SDS011;58572;48.110;19.838;2022-09-29T10:01:55;1.38;;;0.60;;
70920;SDS011;58572;48.110;19.838;2022-09-29T10:04:23;1.98;;;1.00;;
70920;SDS011;58572;48.110;19.838;2022-09-29T10:06:51;2.15;;;1.00;;
70920;SDS011;58572;48.110;19.838;2022-09-29T10:09:19;1.65;;;0.90;;
70920;SDS011;58572;48.110;19.838;2022-09-29T10:11:47;5.25;;;2.25;;
70920;SDS011;58572;48.110;19.838;2022-09-29T10:14:14;10.23;;;5.93;;
70920;SDS011;58572;48.110;19.838;2022-09-29T10:16:47;2.20;;;1.10;;
70920;SDS011;58572;48.110;19.838;2022-09-29T10:19:19;8.52;;;3.55;;
70920;SDS011;58572;48.110;19.838;2022-09-29T10:21:47;3.38;;;0.82;;
70920;SDS011;58572;48.110;19.838;2022-09-29T10:24:23;1.30;;;0.70;;
70920;SDS011;58572;48.110;19.838;2022-09-29T10:26:55;1.50;;;0.63;;
70920;SDS011;58572;48.110;19.838;2022-09-29T10:29:28;2.72;;;1.30;;
70920;SDS011;58572;48.110;19.838;2022-09-29T10:32:01;1.98;;;1.20;;
70920;SDS011;58572;48.110;19.838;2022-09-29T10:34:32;2.47;;;1.20;;
70920;SDS011;58572;48.110;19.838;2022-09-29T10:37:02;2.90;;;1.42;;
70920;SDS011;58572;48.110;19.838;2022-09-29T10:39:33;4.07;;;1.95;;
70920;SDS011;58572;48.110;19.838;2022-09-29T10:42:20;7.03;;;3.78;;
70920;SDS011;58572;48.110;19.838;2022-09-29T10:44:49;4.15;;;2.30;;
70920;SDS011;58572;48.110;19.838;2022-09-29T10:47:19;2.80;;;1.52;;
70920;SDS011;58572;48.110;19.838;2022-09-29T10:49:48;3.10;;;1.50;;
70920;SDS011;58572;48.110;19.838;2022-09-29T10:52:33;4.10;;;2.42;;
70920;SDS011;58572;48.110;19.838;2022-09-29T10:55:04;3.25;;;1.92;;
70920;SDS011;58572;48.110;19.838;2022-09-29T10:57:32;4.22;;;3.03;;
70920;SDS011;58572;48.110;19.838;2022-09-29T11:00:02;5.68;;;2.78;;
70920;SDS011;58572;48.110;19.838;2022-09-29T11:02:31;4.25;;;2.42;;
70920;SDS011;58572;48.110;19.838;2022-09-29T11:05:02;4.03;;;3.00;;
70920;SDS011;58572;48.110;19.838;2022-09-29T11:07:31;5.88;;;3.00;;
70920;SDS011;58572;48.110;19.838;2022-09-29T11:12:34;4.97;;;3.33;;
70920;SDS011;58572;48.110;19.838;2022-09-29T11:15:07;3.80;;;3.00;;
70920;SDS011;58572;48.110;19.838;2022-09-29T11:17:50;3.38;;;2.72;;
70920;SDS011;58572;48.110;19.838;2022-09-29T11:20:18;4.40;;;2.75;;
70920;SDS011;58572;48.110;19.838;2022-09-29T11:22:50;3.22;;;2.15;;
70920;SDS011;58572;48.110;19.838;2022-09-29T11:25:28;3.63;;;2.50;;
70920;SDS011;58572;48.110;19.838;2022-09-29T11:31:09;3.67;;;2.35;;
70920;SDS011;58572;48.110;19.838;2022-09-29T11:33:56;3.00;;;2.03;;
70920;SDS011;58572;48.110;19.838;2022-09-29T11:36:40;3.53;;;2.28;;
70920;SDS011;58572;48.110;19.838;2022-09-29T11:39:23;3.28;;;2.40;;
70920;SDS011;58572;48.110;19.838;2022-09-29T11:42:05;7.13;;;2.30;;
70920;SDS011;58572;48.110;19.838;2022-09-29T11:44:49;3.40;;;2.03;;
70920;SDS011;58572;48.110;19.838;2022-09-29T11:47:28;2.05;;;1.10;;
70920;SDS011;58572;48.110;19.838;2022-09-29T11:50:15;2.13;;;1.27;;
70920;SDS011;58572;48.110;19.838;2022-09-29T11:53:10;4.20;;;1.75;;
70920;SDS011;58572;48.110;19.838;2022-09-29T11:55:55;14.98;;;6.00;;
70920;SDS011;58572;48.110;19.838;2022-09-29T11:58:45;10.00;;;4.43;;
70920;SDS011;58572;48.110;19.838;2022-09-29T12:01:29;4.47;;;2.25;;
70920;SDS011;58572;48.110;19.838;2022-09-29T12:06:58;3.20;;;1.83;;
70920;SDS011;58572;48.110;19.838;2022-09-29T12:12:40;5.10;;;1.73;;
70920;SDS011;58572;48.110;19.838;2022-09-29T12:15:22;4.20;;;1.92;;
70920;SDS011;58572;48.110;19.838;2022-09-29T12:18:01;5.18;;;2.13;;
70920;SDS011;58572;48.110;19.838;2022-09-29T12:20:34;5.47;;;1.98;;
70920;SDS011;58572;48.110;19.838;2022-09-29T12:23:08;3.45;;;1.98;;
70920;SDS011;58572;48.110;19.838;2022-09-29T12:25:38;3.28;;;2.33;;
70920;SDS011;58572;48.110;19.838;2022-09-29T12:28:13;4.45;;;2.63;;
70920;SDS011;58572;48.110;19.838;2022-09-29T12:30:44;3.80;;;2.80;;
70920;SDS011;58572;48.110;19.838;2022-09-29T12:33:19;4.03;;;2.97;;
70920;SDS011;58572;48.110;19.838;2022-09-29T12:35:53;4.93;;;3.22;;
70920;SDS011;58572;48.110;19.838;2022-09-29T12:38:29;7.38;;;3.60;;
70920;SDS011;58572;48.110;19.838;2022-09-29T12:41:06;6.35;;;3.67;;
70920;SDS011;58572;48.110;19.838;2022-09-29T12:43:40;5.15;;;3.00;;
70920;SDS011;58572;48.110;19.838;2022-09-29T12:46:15;6.38;;;3.70;;
70920;SDS011;58572;48.110;19.838;2022-09-29T12:48:51;5.50;;;4.10;;
70920;SDS011;58572;48.110;19.838;2022-09-29T12:51:25;6.40;;;4.30;;
70920;SDS011;58572;48.110;19.838;2022-09-29T12:54:02;5.15;;;3.92;;
70920;SDS011;58572;48.110;19.838;2022-09-29T12:56:36;5.00;;;3.67;;
70920;SDS011;58572;48.110;19.838;2022-09-29T12:59:08;5.50;;;3.53;;
70920;SDS011;58572;48.110;19.838;2022-09-29T13:01:40;4.93;;;3.65;;
70920;SDS011;58572;48.110;19.838;2022-09-29T13:16:12;5.20;;;3.95;;
70920;SDS011;58572;48.110;19.838;2022-09-29T13:21:53;4.97;;;3.47;;
70920;SDS011;58572;48.110;19.838;2022-09-29T13:24:36;6.28;;;3.70;;
70920;SDS011;58572;48.110;19.838;2022-09-29T13:27:16;5.72;;;4.00;;
70920;SDS011;58572;48.110;19.838;2022-09-29T13:29:55;6.07;;;4.13;;
70920;SDS011;58572;48.110;19.838;2022-09-29T13:32:26;5.63;;;4.43;;
70920;SDS011;58572;48.110;19.838;2022-09-29T13:34:56;8.23;;;4.25;;
70920;SDS011;58572;48.110;19.838;2022-09-29T13:37:28;5.82;;;4.43;;
70920;SDS011;58572;48.110;19.838;2022-09-29T13:40:00;7.07;;;4.50;;
70920;SDS011;58572;48.110;19.838;2022-09-29T13:42:38;6.07;;;4.88;;
70920;SDS011;58572;48.110;19.838;2022-09-29T14:03:01;4.35;;;3.47;;
70920;SDS011;58572;48.110;19.838;2022-09-29T14:05:38;7.35;;;4.22;;
70920;SDS011;58572;48.110;19.838;2022-09-29T14:08:13;5.95;;;4.32;;
70920;SDS011;58572;48.110;19.838;2022-09-29T14:10:46;7.72;;;4.97;;
70920;SDS011;58572;48.110;19.838;2022-09-29T14:13:21;6.80;;;5.20;;
70920;SDS011;58572;48.110;19.838;2022-09-29T14:16:00;7.18;;;5.18;;
70920;SDS011;58572;48.110;19.838;2022-09-29T14:18:37;7.93;;;5.28;;
70920;SDS011;58572;48.110;19.838;2022-09-29T14:21:09;7.93;;;5.53;;
70920;SDS011;58572;48.110;19.838;2022-09-29T14:23:45;6.63;;;5.20;;
70920;SDS011;58572;48.110;19.838;2022-09-29T14:29:15;5.97;;;4.80;;
70920;SDS011;58572;48.110;19.838;2022-09-29T14:31:47;7.35;;;5.32;;
70920;SDS011;58572;48.110;19.838;2022-09-29T14:34:17;8.18;;;5.13;;
70920;SDS011;58572;48.110;19.838;2022-09-29T14:36:50;6.80;;;5.07;;
70920;SDS011;58572;48.110;19.838;2022-09-29T14:39:20;6.80;;;4.97;;
70920;SDS011;58572;48.110;19.838;2022-09-29T14:41:49;8.43;;;4.50;;
70920;SDS011;58572;48.110;19.838;2022-09-29T14:44:19;5.90;;;4.63;;
70920;SDS011;58572;48.110;19.838;2022-09-29T14:46:57;10.90;;;5.90;;
70920;SDS011;58572;48.110;19.838;2022-09-29T14:53:26;7.75;;;6.03;;
70920;SDS011;58572;48.110;19.838;2022-09-29T14:56:09;6.68;;;5.10;;
70920;SDS011;58572;48.110;19.838;2022-09-29T14:58:50;9.10;;;5.25;;
70920;SDS011;58572;48.110;19.838;2022-09-29T15:01:29;7.10;;;5.00;;
70920;SDS011;58572;48.110;19.838;2022-09-29T15:04:03;7.10;;;4.85;;
70920;SDS011;58572;48.110;19.838;2022-09-29T15:06:32;8.20;;;4.90;;
70920;SDS011;58572;48.110;19.838;2022-09-29T15:09:01;8.15;;;5.10;;
70920;SDS011;58572;48.110;19.838;2022-09-29T15:11:41;7.50;;;5.03;;
70920;SDS011;58572;48.110;19.838;2022-09-29T15:17:04;6.40;;;4.88;;
70920;SDS011;58572;48.110;19.838;2022-09-29T15:19:43;9.57;;;4.82;;
70920;SDS011;58572;48.110;19.838;2022-09-29T15:22:31;6.97;;;5.13;;
70920;SDS011;58572;48.110;19.838;2022-09-29T15:25:20;6.65;;;4.38;;
70920;SDS011;58572;48.110;19.838;2022-09-29T15:27:52;7.95;;;4.78;;
70920;SDS011;58572;48.110;19.838;2022-09-29T15:30:21;6.93;;;5.20;;
70920;SDS011;58572;48.110;19.838;2022-09-29T15:32:51;5.70;;;4.10;;
70920;SDS011;58572;48.110;19.838;2022-09-29T15:35:21;5.07;;;3.83;;
70920;SDS011;58572;48.110;19.838;2022-09-29T15:37:54;5.25;;;4.00;;
70920;SDS011;58572;48.110;19.838;2022-09-29T15:40:41;6.55;;;3.60;;
70920;SDS011;58572;48.110;19.838;2022-09-29T15:43:19;6.60;;;3.60;;
70920;SDS011;58572;48.110;19.838;2022-09-29T15:45:57;4.97;;;3.70;;
70920;SDS011;58572;48.110;19.838;2022-09-29T15:48:28;4.55;;;3.08;;
70920;SDS011;58572;48.110;19.838;2022-09-29T15:50:56;5.78;;;3.60;;
70920;SDS011;58572;48.110;19.838;2022-09-29T15:53:26;4.65;;;3.22;;
70920;SDS011;58572;48.110;19.838;2022-09-29T15:55:55;5.07;;;3.08;;
70920;SDS011;58572;48.110;19.838;2022-09-29T15:58:35;5.63;;;3.17;;
70920;SDS011;58572;48.110;19.838;2022-09-29T16:01:10;4.53;;;3.08;;
70920;SDS011;58572;48.110;19.838;2022-09-29T16:03:50;6.20;;;2.95;;
70920;SDS011;58572;48.110;19.838;2022-09-29T16:06:24;4.82;;;2.88;;
70920;SDS011;58572;48.110;19.838;2022-09-29T16:08:54;4.70;;;3.20;;
70920;SDS011;58572;48.110;19.838;2022-09-29T16:11:25;5.10;;;2.67;;
70920;SDS011;58572;48.110;19.838;2022-09-29T16:13:57;4.45;;;3.17;;
70920;SDS011;58572;48.110;19.838;2022-09-29T16:16:36;5.32;;;3.22;;
70920;SDS011;58572;48.110;19.838;2022-09-29T16:19:11;5.38;;;2.95;;
70920;SDS011;58572;48.110;19.838;2022-09-29T16:21:41;6.57;;;3.60;;
70920;SDS011;58572;48.110;19.838;2022-09-29T16:24:12;4.22;;;3.25;;